createdAt,value
2019-05-20T00:00:08.974Z,89.44
2019-05-20T00:02:38.830Z,89.18
2019-05-20T00:05:08.208Z,89.22
2019-05-20T00:07:37.495Z,89.09
2019-05-20T00:10:08.416Z,89.45
2019-05-20T00:12:37.745Z,88.92
2019-05-20T00:15:07.155Z,89.13
2019-05-20T00:17:36.455Z,89.27
2019-05-20T00:20:07.417Z,89.24
2019-05-20T00:22:36.714Z,89.23
2019-05-20T00:25:07.373Z,89.01
2019-05-20T00:27:36.856Z,88.89
2019-05-20T00:30:07.106Z,88.93
2019-05-20T00:32:41.142Z,89.04
2019-05-20T00:35:07.868Z,88.98
2019-05-20T00:37:37.232Z,89.18
2019-05-20T00:40:09.023Z,89.08
2019-05-20T00:42:38.336Z,88.89
2019-05-20T00:45:07.785Z,88.89
2019-05-20T00:47:37.071Z,88.98
2019-05-20T00:50:06.745Z,88.97
2019-05-20T00:52:36.051Z,88.93
2019-05-20T00:55:07.309Z,88.67
2019-05-20T00:57:36.696Z,88.65
2019-05-20T01:00:07.761Z,88.86
2019-05-20T01:02:37.160Z,88.73
2019-05-20T01:05:07.503Z,88.70
2019-05-20T01:07:37.392Z,88.54
2019-05-20T01:10:07.078Z,88.37
2019-05-20T01:12:36.387Z,88.30
2019-05-20T01:15:06.836Z,88.09
2019-05-20T01:17:36.118Z,87.42
2019-05-20T01:20:06.870Z,87.59
2019-05-20T01:22:36.391Z,86.89
2019-05-20T01:25:06.223Z,86.91
2019-05-20T01:27:35.494Z,86.95
2019-05-20T01:30:07.881Z,87.32
2019-05-20T01:32:37.172Z,86.39
2019-05-20T01:35:08.402Z,86.47
2019-05-20T01:37:37.681Z,86.57
2019-05-20T01:40:08.503Z,86.92
2019-05-20T01:42:37.791Z,86.90
2019-05-20T01:45:07.550Z,87.07
2019-05-20T01:47:36.823Z,87.48
2019-05-20T01:50:07.547Z,87.87
2019-05-20T01:52:36.909Z,87.53
2019-05-20T01:55:09.985Z,86.88
2019-05-20T01:57:39.259Z,87.41
2019-05-20T02:00:09.115Z,87.16
2019-05-20T02:02:38.463Z,87.08
2019-05-20T02:05:08.135Z,87.27
2019-05-20T02:07:37.502Z,87.89
2019-05-20T02:10:07.551Z,87.69
2019-05-20T02:12:36.837Z,87.39
2019-05-20T02:15:12.069Z,87.32
2019-05-20T02:17:41.348Z,87.10
2019-05-20T02:20:10.922Z,87.32
2019-05-20T02:22:40.254Z,87.47
2019-05-20T02:25:09.784Z,87.13
2019-05-20T02:27:39.102Z,87.08
2019-05-20T02:30:08.766Z,87.02
2019-05-20T02:32:38.047Z,87.33
2019-05-20T02:35:07.786Z,87.37
2019-05-20T02:37:37.087Z,87.60
2019-05-20T02:40:07.740Z,87.71
2019-05-20T02:42:37.172Z,87.81
2019-05-20T02:45:07.914Z,87.78
2019-05-20T02:47:37.229Z,87.76
2019-05-20T02:50:07.595Z,87.76
2019-05-20T02:52:36.875Z,87.76
2019-05-20T02:55:07.258Z,87.71
2019-05-20T02:57:36.626Z,87.70
2019-05-20T03:00:09.107Z,87.62
2019-05-20T03:02:38.430Z,87.64
2019-05-20T03:05:07.775Z,87.72
2019-05-20T03:07:37.090Z,87.42
2019-05-20T03:10:06.924Z,87.76
2019-05-20T03:12:37.225Z,87.60
2019-05-20T03:15:07.087Z,87.75
2019-05-20T03:17:36.355Z,87.26
2019-05-20T03:20:06.027Z,87.26
2019-05-20T03:22:35.312Z,87.23
2019-05-20T03:25:06.641Z,87.30
2019-05-20T03:27:37.040Z,87.17
2019-05-20T03:30:08.037Z,87.18
2019-05-20T03:32:37.398Z,87.42
2019-05-20T03:35:07.998Z,87.47
2019-05-20T03:37:37.363Z,87.23
2019-05-20T03:40:07.506Z,87.58
2019-05-20T03:42:36.794Z,87.49
2019-05-20T03:45:06.544Z,87.36
2019-05-20T03:47:35.867Z,87.11
2019-05-20T03:50:07.255Z,86.77
2019-05-20T03:52:36.546Z,87.59
2019-05-20T03:55:07.399Z,87.21
2019-05-20T03:57:36.948Z,86.97
2019-05-20T04:00:06.945Z,86.70
2019-05-20T04:02:36.256Z,86.65
2019-05-20T04:05:06.006Z,86.51
2019-05-20T04:07:36.765Z,86.03
2019-05-20T04:10:06.766Z,86.25
2019-05-20T04:12:36.072Z,86.65
2019-05-20T04:15:06.359Z,86.58
2019-05-20T04:17:35.665Z,86.70
2019-05-20T04:20:06.720Z,86.90
2019-05-20T04:22:36.040Z,86.80
2019-05-20T04:25:06.961Z,86.36
2019-05-20T04:27:36.263Z,86.44
2019-05-20T04:30:08.704Z,86.11
2019-05-20T04:32:38.018Z,86.14
2019-05-20T04:35:21.266Z,86.15
2019-05-20T04:37:38.307Z,86.07
2019-05-20T04:40:07.989Z,86.53
2019-05-20T04:42:37.345Z,86.63
2019-05-20T04:45:09.282Z,87.30
2019-05-20T04:47:38.578Z,87.97
2019-05-20T04:50:08.368Z,87.19
2019-05-20T04:52:38.711Z,87.34
2019-05-20T04:55:08.549Z,87.08
2019-05-20T04:57:37.866Z,86.94
2019-05-20T05:00:10.890Z,87.39
2019-05-20T05:02:43.427Z,87.41
2019-05-20T05:05:11.491Z,87.39
2019-05-20T05:07:40.888Z,87.15
2019-05-20T05:10:10.649Z,87.45
2019-05-20T05:12:39.948Z,87.54
2019-05-20T05:15:09.777Z,87.27
2019-05-20T05:17:39.165Z,87.17
2019-05-20T05:20:18.105Z,87.02
2019-05-20T05:22:43.372Z,87.02
2019-05-20T05:25:12.725Z,87.11
2019-05-20T05:27:42.028Z,87.39
2019-05-20T05:30:11.494Z,86.88
2019-05-20T05:32:44.186Z,86.62
2019-05-20T05:35:15.501Z,86.58
2019-05-20T05:37:44.823Z,86.17
2019-05-20T05:40:14.552Z,85.85
2019-05-20T05:42:43.854Z,85.89
2019-05-20T05:45:14.486Z,86.22
2019-05-20T05:47:45.333Z,86.14
2019-05-20T05:50:16.175Z,85.84
2019-05-20T05:52:45.470Z,85.90
2019-05-20T05:55:14.772Z,85.62
2019-05-20T05:57:44.081Z,85.64
2019-05-20T06:00:13.631Z,85.30
2019-05-20T06:02:43.173Z,85.68
2019-05-20T06:05:12.447Z,85.34
2019-05-20T06:07:41.779Z,85.18
2019-05-20T06:10:12.098Z,84.35
2019-05-20T06:12:41.402Z,85.06
2019-05-20T06:15:11.051Z,85.35
2019-05-20T06:17:41.677Z,85.20
2019-05-20T06:20:11.502Z,84.82
2019-05-20T06:22:40.905Z,85.61
2019-05-20T06:25:10.967Z,85.78
2019-05-20T06:27:40.528Z,85.83
2019-05-20T06:30:11.371Z,85.92
2019-05-20T06:32:40.909Z,85.84
2019-05-20T06:35:11.022Z,85.48
2019-05-20T06:37:50.908Z,85.45
2019-05-20T06:40:20.277Z,84.56
2019-05-20T06:42:49.588Z,84.93
2019-05-20T06:45:19.078Z,85.93
2019-05-20T06:47:48.387Z,86.32
2019-05-20T06:50:18.970Z,86.03
2019-05-20T06:52:49.109Z,85.91
2019-05-20T06:55:18.524Z,86.26
2019-05-20T06:57:47.889Z,85.75
2019-05-20T07:00:32.269Z,85.52
2019-05-20T07:03:01.653Z,86.19
2019-05-20T07:05:31.066Z,85.81
2019-05-20T07:08:01.458Z,86.19
2019-05-20T07:10:30.931Z,86.33
2019-05-20T07:13:00.258Z,86.31
2019-05-20T07:15:29.670Z,86.81
2019-05-20T07:17:59.092Z,86.92
2019-05-20T07:20:29.562Z,86.68
2019-05-20T07:22:58.943Z,86.39
2019-05-20T07:25:28.372Z,86.10
2019-05-20T07:27:57.720Z,86.50
2019-05-20T07:30:27.027Z,86.06
2019-05-20T07:32:56.344Z,86.17
2019-05-20T07:35:30.803Z,86.74
2019-05-20T07:37:56.945Z,86.49
2019-05-20T07:40:31.162Z,86.68
2019-05-20T07:43:00.465Z,86.38
2019-05-20T07:45:31.440Z,85.62
2019-05-20T07:48:01.032Z,86.19
2019-05-20T07:50:31.576Z,85.95
2019-05-20T07:53:01.312Z,85.94
2019-05-20T07:55:32.955Z,85.89
2019-05-20T07:58:06.191Z,85.62
2019-05-20T08:00:35.831Z,86.22
2019-05-20T08:03:05.675Z,85.93
2019-05-20T08:05:35.354Z,86.50
2019-05-20T08:08:05.036Z,86.45
2019-05-20T08:10:34.415Z,86.09
2019-05-20T08:13:03.745Z,85.98
2019-05-20T08:15:33.058Z,86.05
2019-05-20T08:18:02.717Z,85.48
2019-05-20T08:20:32.031Z,85.12
2019-05-20T08:23:01.330Z,84.40
2019-05-20T08:25:30.647Z,85.25
2019-05-20T08:27:59.977Z,85.73
2019-05-20T08:30:35.111Z,85.78
2019-05-20T08:33:04.992Z,85.90
2019-05-20T08:35:34.479Z,84.70
2019-05-20T08:38:04.241Z,84.41
2019-05-20T08:40:33.552Z,83.91
2019-05-20T08:43:02.892Z,82.65
2019-05-20T08:45:32.347Z,83.40
2019-05-20T08:48:01.689Z,83.01
2019-05-20T08:50:30.989Z,83.43
2019-05-20T08:53:00.630Z,83.61
2019-05-20T08:55:30.495Z,84.53
2019-05-20T08:57:59.809Z,84.60
2019-05-20T09:00:29.313Z,84.81
2019-05-20T09:02:59.548Z,84.22
2019-05-20T09:05:29.003Z,84.26
2019-05-20T09:08:03.762Z,84.01
2019-05-20T09:10:29.592Z,83.60
2019-05-20T09:12:58.962Z,83.49
2019-05-20T09:15:28.549Z,82.99
2019-05-20T09:17:59.450Z,82.87
2019-05-20T09:20:28.746Z,81.62
2019-05-20T09:22:58.114Z,83.17
2019-05-20T09:25:32.087Z,82.34
2019-05-20T09:28:01.760Z,83.21
2019-05-20T09:30:31.109Z,80.94
2019-05-20T09:33:00.551Z,80.65
2019-05-20T09:35:30.008Z,81.04
2019-05-20T09:38:00.641Z,81.36
2019-05-20T09:40:38.395Z,81.25
2019-05-20T09:43:08.750Z,80.93
2019-05-20T09:45:38.364Z,81.54
2019-05-20T09:48:08.061Z,80.51
2019-05-20T09:50:37.335Z,81.87
2019-05-20T09:53:07.731Z,82.24
2019-05-20T09:55:37.653Z,81.79
2019-05-20T09:58:07.803Z,80.32
2019-05-20T10:00:37.233Z,80.90
2019-05-20T10:03:07.643Z,81.51
2019-05-20T10:05:37.779Z,81.25
2019-05-20T10:08:07.535Z,81.75
2019-05-20T10:10:38.017Z,81.11
2019-05-20T10:13:08.341Z,80.78
2019-05-20T10:15:37.965Z,81.31
2019-05-20T10:18:07.523Z,81.50
2019-05-20T10:20:36.906Z,81.32
2019-05-20T10:23:07.446Z,81.38
2019-05-20T10:25:36.775Z,81.55
2019-05-20T10:28:06.226Z,80.80
2019-05-20T10:30:35.574Z,80.96
2019-05-20T10:33:09.122Z,82.19
2019-05-20T10:35:36.960Z,81.17
2019-05-20T10:38:06.401Z,80.67
2019-05-20T10:40:35.710Z,80.64
2019-05-20T10:43:05.046Z,80.78
2019-05-20T10:45:34.686Z,81.79
2019-05-20T10:48:08.588Z,81.40
2019-05-20T10:50:36.139Z,81.19
2019-05-20T10:53:05.468Z,81.06
2019-05-20T10:55:34.837Z,80.55
2019-05-20T10:58:05.673Z,81.67
2019-05-20T11:00:35.038Z,81.86
2019-05-20T11:03:04.419Z,81.41
2019-05-20T11:05:33.827Z,82.12
2019-05-20T11:08:03.206Z,82.19
2019-05-20T11:10:37.029Z,81.14
2019-05-20T11:13:06.384Z,80.55
2019-05-20T11:15:35.841Z,80.60
2019-05-20T11:18:05.342Z,80.67
2019-05-20T11:20:34.651Z,79.28
2019-05-20T11:23:03.943Z,80.86
2019-05-20T11:25:33.314Z,80.80
2019-05-20T11:28:02.718Z,79.73
2019-05-20T11:30:32.086Z,80.00
2019-05-20T11:33:01.481Z,79.69
2019-05-20T11:35:30.814Z,79.79
2019-05-20T11:38:00.302Z,80.37
2019-05-20T11:40:29.590Z,80.19
2019-05-20T11:42:58.910Z,79.16
2019-05-20T11:45:28.285Z,79.89
2019-05-20T11:47:57.589Z,79.94
2019-05-20T11:50:26.890Z,80.14
2019-05-20T11:52:56.200Z,80.10
2019-05-20T11:55:25.605Z,79.76
2019-05-20T11:57:55.316Z,80.49
2019-05-20T12:00:25.396Z,79.54
2019-05-20T12:02:55.684Z,80.46
2019-05-20T12:05:24.978Z,78.85
2019-05-20T12:07:54.314Z,78.40
2019-05-20T12:10:23.679Z,78.88
2019-05-20T12:12:53.031Z,79.02
2019-05-20T12:15:22.416Z,79.52
2019-05-20T12:17:51.721Z,78.61
2019-05-20T12:20:21.704Z,78.58
2019-05-20T12:22:52.698Z,78.57
2019-05-20T12:25:22.185Z,79.20
2019-05-20T12:27:51.489Z,78.69
2019-05-20T12:30:21.004Z,78.76
2019-05-20T12:32:50.461Z,77.73
2019-05-20T12:35:19.756Z,77.89
2019-05-20T12:37:49.138Z,77.37
2019-05-20T12:40:18.830Z,77.57
2019-05-20T12:42:48.114Z,79.03
2019-05-20T12:45:17.597Z,78.30
2019-05-20T12:47:46.911Z,76.68
2019-05-20T12:50:16.861Z,76.85
2019-05-20T12:52:46.204Z,76.83
2019-05-20T12:55:15.770Z,77.45
2019-05-20T12:57:45.345Z,76.60
2019-05-20T13:00:16.652Z,76.06
2019-05-20T13:02:46.236Z,76.05
2019-05-20T13:05:15.591Z,76.20
2019-05-20T13:07:44.922Z,74.96
2019-05-20T13:10:28.982Z,75.45
2019-05-20T13:12:45.531Z,76.35
2019-05-20T13:15:15.027Z,75.79
2019-05-20T13:17:45.476Z,76.11
2019-05-20T13:20:15.608Z,75.17
2019-05-20T13:22:44.990Z,76.29
2019-05-20T13:25:14.384Z,74.38
2019-05-20T13:27:43.724Z,74.62
2019-05-20T13:30:14.657Z,74.02
2019-05-20T13:32:44.003Z,74.88
2019-05-20T13:35:13.904Z,73.68
2019-05-20T13:37:43.229Z,73.87
2019-05-20T13:40:12.872Z,73.02
2019-05-20T13:42:42.217Z,73.41
2019-05-20T13:45:11.768Z,73.40
2019-05-20T13:47:41.178Z,74.07
2019-05-20T13:50:10.820Z,75.67
2019-05-20T13:52:40.248Z,73.91
2019-05-20T13:55:10.055Z,74.81
2019-05-20T13:57:39.407Z,75.64
2019-05-20T14:00:09.686Z,76.03
2019-05-20T14:02:39.167Z,74.97
2019-05-20T14:05:08.614Z,73.44
2019-05-20T14:07:38.508Z,75.16
2019-05-20T14:10:08.313Z,76.15
2019-05-20T14:12:37.737Z,76.06
2019-05-20T14:15:08.331Z,76.70
2019-05-20T14:17:37.710Z,76.19
2019-05-20T14:20:07.431Z,75.62
2019-05-20T14:22:36.723Z,75.48
2019-05-20T14:25:08.622Z,74.03
2019-05-20T14:27:38.173Z,74.17
2019-05-20T14:30:08.291Z,73.33
2019-05-20T14:32:37.705Z,74.50
2019-05-20T14:35:08.120Z,74.20
2019-05-20T14:37:39.023Z,74.68
2019-05-20T14:40:08.723Z,73.13
2019-05-20T14:42:39.156Z,73.79
2019-05-20T14:45:08.871Z,74.26
2019-05-20T14:47:38.191Z,73.85
2019-05-20T14:50:08.651Z,74.59
2019-05-20T14:52:38.132Z,75.51
2019-05-20T14:55:07.716Z,74.80
2019-05-20T14:57:37.008Z,73.89
2019-05-20T15:00:08.028Z,74.96
2019-05-20T15:02:37.547Z,75.36
2019-05-20T15:05:07.376Z,76.65
2019-05-20T15:07:36.765Z,75.98
2019-05-20T15:10:09.499Z,76.96
2019-05-20T15:12:38.786Z,77.19
2019-05-20T15:15:09.679Z,77.53
2019-05-20T15:17:39.040Z,76.69
2019-05-20T15:20:08.766Z,76.51
2019-05-20T15:22:39.252Z,77.63
2019-05-20T15:25:10.181Z,77.82
2019-05-20T15:27:39.598Z,78.21
2019-05-20T15:30:09.258Z,78.09
2019-05-20T15:32:38.579Z,78.42
2019-05-20T15:35:08.346Z,77.80
2019-05-20T15:37:37.655Z,78.26
2019-05-20T15:40:07.347Z,78.94
2019-05-20T15:42:36.755Z,80.10
2019-05-20T15:45:08.097Z,79.85
2019-05-20T15:47:37.519Z,79.92
2019-05-20T15:50:10.022Z,78.59
2019-05-20T15:52:38.614Z,78.03
2019-05-20T15:55:08.944Z,78.91
2019-05-20T15:57:38.231Z,78.58
2019-05-20T16:00:09.560Z,78.44
2019-05-20T16:02:38.921Z,79.48
2019-05-20T16:05:08.713Z,80.39
2019-05-20T16:07:38.054Z,80.26
2019-05-20T16:10:07.521Z,80.45
2019-05-20T16:12:36.908Z,80.79
2019-05-20T16:15:07.375Z,80.68
2019-05-20T16:17:36.817Z,80.96
2019-05-20T16:20:07.553Z,81.36
2019-05-20T16:22:36.926Z,80.73
2019-05-20T16:25:07.399Z,81.46
2019-05-20T16:27:36.777Z,80.91
2019-05-20T16:30:09.231Z,81.02
2019-05-20T16:32:38.951Z,81.18
2019-05-20T16:35:08.303Z,81.10
2019-05-20T16:37:38.091Z,81.00
2019-05-20T16:40:08.756Z,80.79
2019-05-20T16:42:38.712Z,81.23
2019-05-20T16:45:11.786Z,81.48
2019-05-20T16:47:40.268Z,81.87
2019-05-20T16:50:10.400Z,81.57
2019-05-20T16:52:39.701Z,82.07
2019-05-20T16:55:09.245Z,81.89
2019-05-20T16:57:38.731Z,82.29
2019-05-20T17:00:29.344Z,82.06
2019-05-20T17:02:41.415Z,82.32
2019-05-20T17:05:10.741Z,82.39
2019-05-20T17:07:40.064Z,82.19
2019-05-20T17:10:09.691Z,82.70
2019-05-20T17:12:39.090Z,83.03
2019-05-20T17:15:09.108Z,82.65
2019-05-20T17:17:38.408Z,83.74
2019-05-20T17:20:08.482Z,83.06
2019-05-20T17:22:37.859Z,82.89
2019-05-20T17:25:10.318Z,82.88
2019-05-20T17:27:39.659Z,82.79
2019-05-20T17:30:09.377Z,82.99
2019-05-20T17:32:39.039Z,82.16
2019-05-20T17:35:08.507Z,81.86
2019-05-20T17:37:38.108Z,82.39
2019-05-20T17:40:09.907Z,82.29
2019-05-20T17:42:39.508Z,82.31
2019-05-20T17:45:09.039Z,82.28
2019-05-20T17:47:38.416Z,82.53
2019-05-20T17:50:09.156Z,82.33
2019-05-20T17:52:38.573Z,82.08
2019-05-20T17:55:09.088Z,82.96
2019-05-20T17:57:38.453Z,82.15
2019-05-20T18:00:10.492Z,82.51
2019-05-20T18:02:39.830Z,82.97
2019-05-20T18:05:09.538Z,83.04
2019-05-20T18:07:38.914Z,82.52
2019-05-20T18:10:09.317Z,82.75
2019-05-20T18:12:38.591Z,82.91
2019-05-20T18:15:08.330Z,82.90
2019-05-20T18:17:37.634Z,83.68
2019-05-20T18:20:07.110Z,82.98
2019-05-20T18:22:36.379Z,83.50
2019-05-20T18:25:08.762Z,83.81
2019-05-20T18:27:39.095Z,83.73
2019-05-20T18:30:08.934Z,84.12
2019-05-20T18:32:38.751Z,84.62
2019-05-20T18:35:09.003Z,84.22
2019-05-20T18:37:38.278Z,84.92
2019-05-20T18:40:14.450Z,85.03
2019-05-20T18:42:40.669Z,85.18
2019-05-20T18:45:10.355Z,85.53
2019-05-20T18:47:39.618Z,85.67
2019-05-20T18:50:09.278Z,86.16
2019-05-20T18:52:38.587Z,86.28
2019-05-20T18:55:07.980Z,86.11
2019-05-20T18:57:38.438Z,85.83
2019-05-20T19:00:08.827Z,86.00
2019-05-20T19:02:39.749Z,86.69
2019-05-20T19:05:09.391Z,86.90
2019-05-20T19:07:38.740Z,86.78
2019-05-20T19:10:17.755Z,87.76
2019-05-20T19:12:49.619Z,87.53
2019-05-20T19:15:19.252Z,87.50
2019-05-20T19:17:48.701Z,87.85
2019-05-20T19:20:17.999Z,87.57
2019-05-20T19:22:47.387Z,87.75
2019-05-20T19:25:16.773Z,87.94
2019-05-20T19:27:46.152Z,88.24
2019-05-20T19:30:15.713Z,87.56
2019-05-20T19:32:45.094Z,87.40
2019-05-20T19:35:14.548Z,87.82
2019-05-20T19:37:44.124Z,88.20
2019-05-20T19:40:13.448Z,88.24
2019-05-20T19:42:42.956Z,88.13
2019-05-20T19:45:12.575Z,87.99
2019-05-20T19:47:42.085Z,87.29
2019-05-20T19:50:11.645Z,87.01
2019-05-20T19:52:40.958Z,87.10
2019-05-20T19:55:10.382Z,87.17
2019-05-20T19:57:39.754Z,87.33
2019-05-20T20:00:09.463Z,86.78
2019-05-20T20:02:38.837Z,86.66
2019-05-20T20:05:08.522Z,87.17
2019-05-20T20:07:37.883Z,87.27
2019-05-20T20:10:08.752Z,87.63
2019-05-20T20:12:38.055Z,87.87
2019-05-20T20:15:07.601Z,87.98
2019-05-20T20:17:36.925Z,88.19
2019-05-20T20:20:06.400Z,88.55
2019-05-20T20:22:38.413Z,88.59
2019-05-20T20:25:07.860Z,88.91
2019-05-20T20:27:37.418Z,89.39
2019-05-20T20:30:06.857Z,89.28
2019-05-20T20:32:38.674Z,89.58
2019-05-20T20:35:08.778Z,89.57
2019-05-20T20:37:38.090Z,89.27
2019-05-20T20:40:07.801Z,89.75
2019-05-20T20:42:37.119Z,89.45
2019-05-20T20:45:06.768Z,89.67
2019-05-20T20:47:41.815Z,89.73
2019-05-20T20:50:08.604Z,89.61
2019-05-20T20:52:38.155Z,89.63
2019-05-20T20:55:08.284Z,89.84
2019-05-20T20:57:37.717Z,90.06
2019-05-20T21:00:09.077Z,90.23
2019-05-20T21:02:52.285Z,90.42
2019-05-20T21:05:11.886Z,90.23
2019-05-20T21:07:41.196Z,90.56
2019-05-20T21:10:10.682Z,90.42
2019-05-20T21:12:40.029Z,90.71
2019-05-20T21:15:09.701Z,90.97
2019-05-20T21:17:38.983Z,90.61
2019-05-20T21:20:08.360Z,90.75
2019-05-20T21:22:38.716Z,90.53
2019-05-20T21:25:08.248Z,90.60
2019-05-20T21:27:37.558Z,90.43
2019-05-20T21:30:08.259Z,90.65
2019-05-20T21:32:37.599Z,90.50
2019-05-20T21:35:07.313Z,90.63
2019-05-20T21:37:36.612Z,90.85
2019-05-20T21:40:06.196Z,90.99
2019-05-20T21:42:35.510Z,91.14
2019-05-20T21:45:06.436Z,91.15
2019-05-20T21:47:35.716Z,91.12
2019-05-20T21:50:05.897Z,91.41
2019-05-20T21:52:35.172Z,91.22
2019-05-20T21:55:06.161Z,91.36
2019-05-20T21:57:36.521Z,91.43
2019-05-20T22:00:07.696Z,92.01
2019-05-20T22:02:37.867Z,92.04
2019-05-20T22:05:07.503Z,92.42
2019-05-20T22:07:36.898Z,92.59
2019-05-20T22:10:07.429Z,93.04
2019-05-20T22:12:36.781Z,93.16
2019-05-20T22:15:06.927Z,93.28
2019-05-20T22:17:36.263Z,92.88
2019-05-20T22:20:06.392Z,93.16
2019-05-20T22:22:53.796Z,93.33
2019-05-20T22:25:23.122Z,93.48
2019-05-20T22:27:52.412Z,93.54
2019-05-20T22:30:21.749Z,93.45
2019-05-20T22:32:51.027Z,93.47
2019-05-20T22:35:20.364Z,93.56
2019-05-20T22:37:49.629Z,93.55
2019-05-20T22:40:18.973Z,93.23
2019-05-20T22:42:48.281Z,93.56
2019-05-20T22:45:17.664Z,93.54
2019-05-20T22:47:47.079Z,93.53
2019-05-20T22:50:16.388Z,93.72
2019-05-20T22:52:45.714Z,93.74
2019-05-20T22:55:15.078Z,93.95
2019-05-20T22:57:44.446Z,94.07
2019-05-20T23:00:14.151Z,94.23
2019-05-20T23:02:43.551Z,94.06
2019-05-20T23:05:13.122Z,93.97
2019-05-20T23:07:42.506Z,93.95
2019-05-20T23:10:12.426Z,94.06
2019-05-20T23:12:41.832Z,94.32
2019-05-20T23:15:11.290Z,94.32
2019-05-20T23:17:40.596Z,94.24
2019-05-20T23:20:10.282Z,94.12
2019-05-20T23:22:39.573Z,94.11
2019-05-20T23:25:08.947Z,93.90
2019-05-20T23:27:38.318Z,93.59
2019-05-20T23:30:08.248Z,93.91
2019-05-20T23:32:37.543Z,94.15
2019-05-20T23:35:08.376Z,94.26
2019-05-20T23:37:37.660Z,94.36
2019-05-20T23:40:10.431Z,94.41
2019-05-20T23:42:39.726Z,94.45
2019-05-20T23:45:10.194Z,94.45
2019-05-20T23:47:39.560Z,94.48
2019-05-20T23:50:09.053Z,94.54
2019-05-20T23:52:38.354Z,94.38
2019-05-20T23:55:08.414Z,94.49
2019-05-20T23:57:37.815Z,94.73
